KTVL/TVL METAR and TAF weather

Enter ICAO airport designator
Station Type Date Time Source
KTVL METAR 2020/09/27 03:53 UTC NOAA

KTVL 270353Z AUTO 07008KT 040V100 10SM CLR 18/05 A3024 RMK AO2 SLP185 T01780050


Station Type Date Time Source
KTVL Decoded METAR 2020/09/27 03:53 UTC NOAA

SOUTH LAKE TAHOE AIRPORT, CA, United States (KTVL) 38-53N 119-59W 1925M
Sep 26, 2020 - 11:53 PM EDT / 2020.09.27 0353 UTC
Wind: from the ENE (070 degrees) at 9 MPH (8 KT) (direction variable):0
Visibility: 10 mile(s):0
Sky conditions: clear
Temperature: 64.0 F (17.8 C)
Dew Point: 41.0 F (5.0 C)
Relative Humidity: 42%
Pressure (altimeter): 30.24 in. Hg (1024 hPa)
ob: KTVL 270353Z AUTO 07008KT 040V100 10SM CLR 18/05 A3024 RMK AO2 SLP185 T01780050
cycle: 4

Station Type Date Time Source
KTVL TAF 2020/09/26 18:57 UTC NOAA

TAF KTVL 261757Z 2618/2718 04008KT P6SM SCT200
FM270200 VRB03KT P6SM FEW200

Example: see airport list